Time;durP1;ratioP1;P1;durP2;ratioP2;P2;SDS_P1;SDS_P2;PMS_P1;PMS_P2;Temp;Humidity;BMP_temperature;BMP_pressure;BME280_temperature;BME280_humidity;BME280_pressure;Samples;Min_cycle;Max_cycle;Signal;HPM_P1;HPM_P2
2024/03/19 00:02:03;;;;;;;19.83;16.67;;;11.80;99.90;;;;;;5091076;28;20419;-65
2024/03/19 00:04:29;;;;;;;24.93;17.53;;;11.80;99.90;;;;;;5076108;28;20516;-65
2024/03/19 00:06:55;;;;;;;19.40;15.47;;;11.80;99.90;;;;;;5073601;28;20449;-65
2024/03/19 00:09:21;;;;;;;20.90;16.40;;;11.80;99.90;;;;;;5078762;28;20173;-65
2024/03/19 00:11:46;;;;;;;23.60;16.87;;;11.80;99.90;;;;;;5074108;28;20164;-64
2024/03/19 00:14:12;;;;;;;21.10;16.37;;;11.80;99.90;;;;;;5074588;28;20227;-65
2024/03/19 00:16:38;;;;;;;19.57;16.83;;;11.80;99.90;;;;;;5072631;28;20173;-65
2024/03/19 00:19:03;;;;;;;25.17;16.60;;;11.80;99.90;;;;;;5077633;28;20178;-64
2024/03/19 00:21:29;;;;;;;23.87;16.50;;;11.80;99.90;;;;;;5074710;28;20179;-65
2024/03/19 00:23:56;;;;;;;19.93;15.50;;;11.80;99.90;;;;;;5083760;28;20171;-65
2024/03/19 00:26:21;;;;;;;19.23;15.67;;;11.90;99.90;;;;;;5073946;28;20419;-65
2024/03/19 00:28:47;;;;;;;22.67;16.90;;;11.90;99.90;;;;;;5072116;28;20404;-64
2024/03/19 00:31:13;;;;;;;20.47;16.03;;;12.00;99.90;;;;;;5079878;28;20607;-65
2024/03/19 00:33:38;;;;;;;18.90;15.27;;;11.90;99.90;;;;;;5085665;28;20206;-65
2024/03/19 00:36:09;;;;;;;17.13;14.83;;;12.00;99.90;;;;;;5091547;28;20579;-65
2024/03/19 00:38:35;;;;;;;18.50;16.03;;;11.90;99.90;;;;;;5080869;28;20221;-64
2024/03/19 00:41:01;;;;;;;19.03;14.50;;;12.00;99.90;;;;;;5072921;28;20513;-65
2024/03/19 00:43:27;;;;;;;21.00;15.93;;;11.90;99.90;;;;;;5073042;28;20455;-64
2024/03/19 00:45:54;;;;;;;21.70;15.53;;;;;;;;;;5072828;28;20443;-64
2024/03/19 00:48:20;;;;;;;22.53;16.27;;;12.00;99.90;;;;;;5076875;28;20908;-65
2024/03/19 00:50:46;;;;;;;22.17;16.13;;;12.00;99.90;;;;;;5058653;28;20445;-65
2024/03/19 00:53:12;;;;;;;20.30;15.87;;;12.00;99.90;;;;;;5081095;28;20198;-64
2024/03/19 00:55:38;;;;;;;20.93;15.10;;;12.00;99.90;;;;;;5077088;28;20672;-62
2024/03/19 00:58:04;;;;;;;23.27;15.23;;;12.00;99.90;;;;;;5068594;28;20189;-64
2024/03/19 01:00:29;;;;;;;18.27;15.57;;;12.00;99.90;;;;;;5075164;28;20418;-65
2024/03/19 01:02:56;;;;;;;20.30;16.90;;;11.90;99.90;;;;;;5071072;28;20494;-65
2024/03/19 01:05:22;;;;;;;17.97;15.17;;;12.00;99.90;;;;;;5074302;28;20178;-65
2024/03/19 01:07:48;;;;;;;20.70;15.63;;;12.00;99.90;;;;;;5082069;28;20934;-65
2024/03/19 01:10:14;;;;;;;20.90;14.83;;;12.00;99.90;;;;;;5091364;28;20182;-65
2024/03/19 01:12:40;;;;;;;22.27;15.80;;;12.00;99.90;;;;;;5092106;28;20278;-62
2024/03/19 01:15:07;;;;;;;19.23;14.63;;;12.00;99.90;;;;;;5078583;28;20186;-65
2024/03/19 01:17:35;;;;;;;19.80;15.17;;;12.00;99.90;;;;;;5084382;28;20443;-65
2024/03/19 01:20:04;;;;;;;20.57;14.63;;;11.90;99.90;;;;;;5089627;28;20436;-65
2024/03/19 01:22:29;;;;;;;18.03;14.43;;;11.90;99.90;;;;;;5072932;28;20456;-65
2024/03/19 01:24:55;;;;;;;21.07;15.07;;;11.90;99.90;;;;;;5084221;28;20734;-65
2024/03/19 01:27:21;;;;;;;19.63;15.23;;;11.90;99.90;;;;;;5083554;28;20569;-64
2024/03/19 01:29:47;;;;;;;18.00;14.07;;;12.00;99.90;;;;;;5071749;28;20200;-64
2024/03/19 01:32:13;;;;;;;19.23;15.20;;;12.00;99.90;;;;;;5079631;28;20416;-65
2024/03/19 01:34:39;;;;;;;18.60;14.93;;;11.80;99.90;;;;;;5080817;28;20452;-62
2024/03/19 01:37:05;;;;;;;21.03;14.87;;;11.90;99.90;;;;;;5091258;28;20179;-65
2024/03/19 01:39:32;;;;;;;20.13;15.10;;;11.90;99.90;;;;;;5074904;28;20610;-65
2024/03/19 01:41:57;;;;;;;19.27;16.33;;;11.90;99.90;;;;;;5076091;28;20170;-65
2024/03/19 01:44:23;;;;;;;21.43;17.00;;;12.00;99.90;;;;;;5071534;28;20435;-65
2024/03/19 01:46:49;;;;;;;18.17;15.23;;;11.90;99.90;;;;;;5071645;28;20207;-65
2024/03/19 01:49:16;;;;;;;23.47;16.20;;;11.90;99.90;;;;;;5072224;28;20235;-65
2024/03/19 01:51:43;;;;;;;18.07;14.47;;;12.00;99.90;;;;;;5071790;28;20288;-63
2024/03/19 01:54:10;;;;;;;22.23;15.20;;;12.00;99.90;;;;;;5072488;28;20519;-65
2024/03/19 01:56:37;;;;;;;18.90;15.23;;;;;;;;;;5071420;28;20463;-65
2024/03/19 01:59:03;;;;;;;19.17;14.57;;;11.90;99.90;;;;;;5076105;28;20425;-65
2024/03/19 02:01:29;;;;;;;22.17;15.27;;;12.00;99.90;;;;;;5088128;28;20887;-65
2024/03/19 02:03:55;;;;;;;25.83;15.73;;;12.00;99.90;;;;;;5071438;28;20184;-64
2024/03/19 02:06:21;;;;;;;17.83;13.83;;;12.00;99.90;;;;;;5070777;28;20503;-65
2024/03/19 02:09:03;;;;;;;20.90;15.10;;;12.00;99.90;;;;;;5070920;28;20408;-64
2024/03/19 02:11:36;;;;;;;18.30;13.80;;;12.00;99.90;;;;;;5070872;28;20183;-65
2024/03/19 02:14:06;;;;;;;18.07;13.67;;;12.00;99.90;;;;;;5070491;28;20594;-64
2024/03/19 02:16:33;;;;;;;19.00;14.67;;;12.00;99.90;;;;;;5071954;28;20467;-65
2024/03/19 02:19:01;;;;;;;21.10;14.43;;;12.00;99.90;;;;;;5073129;28;20405;-65
2024/03/19 02:21:28;;;;;;;22.30;15.27;;;12.00;99.90;;;;;;5080651;28;20412;-65
2024/03/19 02:24:01;;;;;;;19.00;14.23;;;12.00;99.90;;;;;;5070870;28;20417;-65
2024/03/19 02:26:29;;;;;;;16.83;13.70;;;11.90;99.90;;;;;;5071684;28;20403;-65
2024/03/19 02:28:59;;;;;;;17.20;12.90;;;12.00;99.90;;;;;;5051540;28;20428;-65
2024/03/19 02:31:27;;;;;;;16.80;13.30;;;11.90;99.90;;;;;;5059284;28;20412;-65
2024/03/19 02:33:55;;;;;;;15.60;13.77;;;11.90;99.90;;;;;;5070972;28;20466;-65
2024/03/19 02:36:21;;;;;;;17.97;13.10;;;11.90;99.90;;;;;;5071532;28;20473;-65
2024/03/19 02:38:47;;;;;;;17.57;13.70;;;11.80;99.90;;;;;;5071063;28;20404;-65
2024/03/19 02:41:12;;;;;;;15.37;12.90;;;11.80;99.90;;;;;;5071674;28;20512;-66
2024/03/19 02:43:39;;;;;;;19.90;14.67;;;11.70;99.90;;;;;;5072259;28;20651;-65
2024/03/19 02:46:06;;;;;;;20.13;14.10;;;11.70;99.90;;;;;;5088445;28;20740;-66
2024/03/19 02:48:31;;;;;;;16.57;12.27;;;11.70;99.90;;;;;;5092115;28;20456;-65
2024/03/19 02:50:57;;;;;;;18.83;13.77;;;;;;;;;;5091304;28;20405;-64
2024/03/19 02:53:26;;;;;;;18.43;13.53;;;11.60;99.90;;;;;;5090840;28;20237;-65
2024/03/19 02:55:52;;;;;;;18.77;14.10;;;11.60;99.90;;;;;;5077706;28;20510;-65
2024/03/19 02:58:18;;;;;;;20.37;13.40;;;11.50;99.90;;;;;;5071748;28;20497;-66
2024/03/19 03:00:45;;;;;;;16.93;14.33;;;11.50;99.90;;;;;;5070713;28;20417;-62
2024/03/19 03:03:11;;;;;;;16.70;12.50;;;11.40;99.90;;;;;;5071643;28;20392;-65
2024/03/19 03:05:37;;;;;;;14.60;12.33;;;11.40;99.90;;;;;;5071994;28;20717;-65
2024/03/19 03:08:04;;;;;;;17.77;12.27;;;11.30;99.90;;;;;;5069571;28;20415;-65
2024/03/19 03:10:30;;;;;;;16.40;13.37;;;11.30;99.90;;;;;;5071557;28;20408;-66
2024/03/19 03:12:56;;;;;;;15.33;12.80;;;11.30;99.90;;;;;;5072617;28;20807;-65
2024/03/19 03:15:22;;;;;;;17.33;12.97;;;11.20;99.90;;;;;;5090857;28;20187;-65
2024/03/19 03:17:47;;;;;;;18.57;14.00;;;11.20;99.90;;;;;;5075944;28;20178;-64
2024/03/19 03:20:13;;;;;;;17.57;12.40;;;11.20;99.90;;;;;;5080572;28;20433;-64
2024/03/19 03:22:39;;;;;;;18.47;14.20;;;11.10;99.90;;;;;;5089928;28;20631;-65
2024/03/19 03:25:11;;;;;;;16.93;14.63;;;11.10;99.90;;;;;;5074035;28;20180;-64
2024/03/19 03:27:37;;;;;;;14.73;12.17;;;11.10;99.90;;;;;;5081867;28;20515;-65
2024/03/19 03:30:08;;;;;;;16.37;12.40;;;11.10;99.90;;;;;;5078793;28;21297;-65
2024/03/19 03:32:35;;;;;;;16.50;13.50;;;11.10;99.90;;;;;;5076731;28;20936;-64
2024/03/19 03:35:02;;;;;;;15.83;11.93;;;11.10;99.90;;;;;;5094401;28;20530;-64
2024/03/19 03:37:28;;;;;;;18.03;14.20;;;11.00;99.90;;;;;;5093237;28;20496;-64
2024/03/19 03:39:53;;;;;;;17.43;13.07;;;11.00;99.90;;;;;;5092467;28;20479;-65
2024/03/19 03:42:19;;;;;;;18.23;13.80;;;11.00;99.90;;;;;;5081096;28;20173;-65
2024/03/19 03:44:45;;;;;;;18.80;13.10;;;11.10;99.90;;;;;;5074801;28;20548;-62
2024/03/19 03:47:11;;;;;;;18.27;12.80;;;11.00;99.90;;;;;;5082567;28;20626;-64
2024/03/19 03:49:36;;;;;;;15.43;12.90;;;11.10;99.90;;;;;;5085207;28;20614;-63
2024/03/19 03:52:02;;;;;;;15.90;13.27;;;11.10;99.90;;;;;;5091686;28;20178;-64
2024/03/19 03:54:28;;;;;;;17.10;14.57;;;11.10;99.90;;;;;;5093461;28;20206;-65
2024/03/19 03:56:54;;;;;;;16.17;14.10;;;11.10;99.90;;;;;;5091805;28;20479;-65
2024/03/19 03:59:19;;;;;;;18.30;13.90;;;11.10;99.90;;;;;;5075698;28;20255;-65
2024/03/19 04:01:45;;;;;;;19.03;13.43;;;11.10;99.90;;;;;;5083244;28;20815;-62
2024/03/19 04:04:11;;;;;;;18.57;14.10;;;11.10;99.90;;;;;;5075094;28;20182;-65
2024/03/19 04:06:37;;;;;;;18.33;13.13;;;11.10;99.90;;;;;;5073896;28;20259;-65
2024/03/19 04:09:02;;;;;;;15.63;13.27;;;11.10;99.90;;;;;;5088287;28;20679;-65
2024/03/19 04:11:28;;;;;;;16.67;12.93;;;11.10;99.90;;;;;;5087798;28;20176;-65
2024/03/19 04:13:54;;;;;;;16.20;13.17;;;11.10;99.90;;;;;;5086228;28;20226;-65
2024/03/19 04:16:19;;;;;;;19.20;14.00;;;11.10;99.90;;;;;;5082320;28;20186;-65
2024/03/19 04:18:45;;;;;;;18.00;14.00;;;11.10;99.90;;;;;;5079049;28;20255;-65
2024/03/19 04:21:11;;;;;;;19.97;13.00;;;11.10;99.90;;;;;;5093909;28;20198;-64
2024/03/19 04:23:36;;;;;;;19.03;14.00;;;11.10;99.90;;;;;;5092269;28;20524;-64
2024/03/19 04:26:03;;;;;;;20.70;13.73;;;11.10;99.90;;;;;;5079327;28;20173;-64
2024/03/19 04:28:29;;;;;;;16.07;13.23;;;11.10;99.90;;;;;;5073703;28;20173;-65
2024/03/19 04:30:54;;;;;;;14.50;12.57;;;11.10;99.90;;;;;;5087605;28;20410;-64
2024/03/19 04:33:20;;;;;;;18.77;14.13;;;11.10;99.90;;;;;;5068511;28;20810;-65
2024/03/19 04:35:46;;;;;;;17.00;14.00;;;11.10;99.90;;;;;;5078803;28;20277;-65
2024/03/19 04:38:14;;;;;;;19.40;13.57;;;11.10;99.90;;;;;;5077748;28;20184;-65
2024/03/19 04:40:41;;;;;;;17.30;13.30;;;11.10;99.90;;;;;;5080507;28;20180;-65
2024/03/19 04:43:06;;;;;;;19.60;13.80;;;11.10;99.90;;;;;;5071919;28;20459;-65
2024/03/19 04:45:32;;;;;;;18.27;13.43;;;11.10;99.90;;;;;;5073770;28;20431;-65
2024/03/19 04:47:59;;;;;;;19.00;13.43;;;11.10;99.90;;;;;;5091829;28;20169;-64
2024/03/19 04:50:24;;;;;;;17.27;12.57;;;11.10;99.90;;;;;;5089760;28;20171;-65
2024/03/19 04:52:50;;;;;;;15.13;12.80;;;11.10;99.90;;;;;;5080631;28;20405;-62
2024/03/19 04:55:16;;;;;;;19.40;13.87;;;11.10;99.90;;;;;;5077665;28;20208;-65
2024/03/19 04:57:42;;;;;;;20.27;13.10;;;11.10;99.90;;;;;;5070752;28;20420;-65
2024/03/19 05:00:17;;;;;;;20.10;15.00;;;11.10;99.90;;;;;;5081112;28;20419;-64
2024/03/19 05:02:46;;;;;;;19.03;12.50;;;11.10;99.90;;;;;;5053495;28;20154;-65
2024/03/19 05:05:12;;;;;;;17.13;13.93;;;11.10;99.90;;;;;;5072346;28;20692;-65
2024/03/19 05:07:40;;;;;;;17.43;13.00;;;11.10;99.90;;;;;;5091276;28;20406;-64
2024/03/19 05:10:07;;;;;;;19.57;13.50;;;11.10;99.90;;;;;;5076291;28;20546;-65
2024/03/19 05:12:32;;;;;;;20.37;15.00;;;11.20;99.90;;;;;;5079073;28;20474;-64
2024/03/19 05:14:58;;;;;;;23.80;14.37;;;11.20;99.90;;;;;;5087903;28;20928;-65
2024/03/19 05:17:24;;;;;;;21.93;15.50;;;11.20;99.90;;;;;;5082133;28;20558;-65
2024/03/19 05:19:50;;;;;;;21.30;15.83;;;11.30;99.90;;;;;;5078253;28;20222;-62
2024/03/19 05:22:15;;;;;;;19.80;13.20;;;11.30;99.90;;;;;;5074312;28;20178;-65
2024/03/19 05:24:41;;;;;;;21.40;13.33;;;11.30;99.90;;;;;;5071165;28;20193;-65
2024/03/19 05:27:08;;;;;;;20.07;13.33;;;11.30;99.90;;;;;;5072125;28;20181;-64
2024/03/19 05:29:33;;;;;;;19.17;14.17;;;11.30;99.90;;;;;;5072917;28;20215;-65
2024/03/19 05:32:00;;;;;;;16.80;13.00;;;11.30;99.90;;;;;;5084699;28;20418;-65
2024/03/19 05:34:25;;;;;;;22.00;14.37;;;11.30;99.90;;;;;;5085533;28;20649;-65
2024/03/19 05:36:51;;;;;;;21.07;14.90;;;11.10;99.90;;;;;;5092453;28;20406;-62
2024/03/19 05:39:17;;;;;;;20.70;13.90;;;11.10;99.90;;;;;;5090715;28;20181;-65
2024/03/19 05:41:43;;;;;;;19.90;15.27;;;11.20;99.90;;;;;;5081621;28;20173;-65
2024/03/19 05:44:09;;;;;;;24.47;15.07;;;11.30;99.90;;;;;;5070060;28;20190;-64
2024/03/19 05:46:34;;;;;;;23.23;16.77;;;11.30;99.90;;;;;;5074300;28;20223;-64
2024/03/19 05:49:00;;;;;;;19.77;14.37;;;11.40;99.90;;;;;;5081263;28;20424;-65
2024/03/19 05:51:26;;;;;;;16.87;14.40;;;11.40;99.90;;;;;;5078023;28;20167;-65
2024/03/19 05:53:52;;;;;;;18.83;15.33;;;11.40;99.90;;;;;;5072337;28;20850;-62
2024/03/19 05:56:18;;;;;;;19.23;13.77;;;11.50;99.90;;;;;;5073636;28;20165;-65
2024/03/19 05:58:43;;;;;;;19.80;16.23;;;11.50;99.90;;;;;;5071172;28;20173;-65
2024/03/19 06:01:09;;;;;;;26.57;15.40;;;11.50;99.90;;;;;;5072072;28;20172;-65
2024/03/19 06:03:35;;;;;;;23.40;16.40;;;11.50;99.90;;;;;;5080352;28;20546;-66
2024/03/19 06:06:08;;;;;;;18.83;14.10;;;11.50;99.90;;;;;;5070531;28;20707;-65
2024/03/19 06:08:35;;;;;;;19.33;16.00;;;11.50;99.90;;;;;;5074436;28;20973;-65
2024/03/19 06:11:00;;;;;;;24.00;15.23;;;11.60;99.90;;;;;;5083446;28;20440;-65
2024/03/19 06:13:27;;;;;;;26.30;16.20;;;11.60;99.90;;;;;;5074574;28;20879;-65
2024/03/19 06:15:53;;;;;;;18.53;15.77;;;11.60;99.90;;;;;;5072377;28;20203;-65
2024/03/19 06:18:19;;;;;;;23.50;15.13;;;11.60;99.90;;;;;;5092723;28;20408;-65
2024/03/19 06:20:47;;;;;;;20.83;14.40;;;11.70;99.90;;;;;;5090610;28;20427;-65
2024/03/19 06:23:13;;;;;;;20.30;15.27;;;11.70;99.90;;;;;;5088152;28;20423;-65
2024/03/19 06:25:39;;;;;;;19.00;15.10;;;11.80;99.90;;;;;;5088254;28;20447;-65
2024/03/19 06:28:06;;;;;;;25.63;14.60;;;11.80;99.90;;;;;;5088897;28;20425;-65
2024/03/19 06:30:32;;;;;;;26.10;17.40;;;11.80;99.90;;;;;;5084641;28;20786;-65
2024/03/19 06:32:58;;;;;;;26.17;15.23;;;11.80;99.90;;;;;;5077138;28;20418;-64
2024/03/19 06:35:30;;;;;;;19.73;16.47;;;11.80;99.90;;;;;;5089799;28;20408;-64
2024/03/19 06:37:56;;;;;;;19.30;14.03;;;11.80;99.90;;;;;;5086514;28;20424;-64
2024/03/19 06:40:22;;;;;;;20.33;16.90;;;11.90;99.90;;;;;;5089151;28;20418;-65
2024/03/19 06:42:48;;;;;;;18.43;14.37;;;11.90;99.90;;;;;;5092323;28;20253;-65
2024/03/19 06:45:13;;;;;;;19.90;14.20;;;12.00;99.90;;;;;;5071702;28;20168;-63
2024/03/19 06:47:39;;;;;;;21.93;14.30;;;12.00;99.90;;;;;;5080805;28;20628;-64
2024/03/19 06:50:12;;;;;;;27.00;16.93;;;12.00;99.90;;;;;;5088886;28;20176;-64
2024/03/19 06:52:40;;;;;;;24.97;15.30;;;12.10;99.90;;;;;;5092419;28;20171;-64
2024/03/19 06:55:06;;;;;;;23.00;16.53;;;12.10;99.90;;;;;;5079126;28;20459;-63
2024/03/19 06:57:32;;;;;;;20.80;15.13;;;12.20;99.90;;;;;;5080613;28;20428;-64
2024/03/19 06:59:58;;;;;;;22.80;16.27;;;12.20;99.90;;;;;;5083330;28;20739;-64
2024/03/19 07:02:28;;;;;;;22.47;15.93;;;12.20;99.90;;;;;;5093369;28;20558;-64
2024/03/19 07:04:55;;;;;;;24.30;17.00;;;12.30;99.90;;;;;;5094357;28;20417;-64
2024/03/19 07:07:22;;;;;;;24.93;16.23;;;12.30;99.90;;;;;;5093951;28;20406;-63
2024/03/19 07:09:52;;;;;;;29.47;18.67;;;12.40;99.90;;;;;;5095999;28;20395;-64
2024/03/19 07:12:21;;;;;;;24.30;16.03;;;12.40;99.90;;;;;;5081186;28;20498;-63
2024/03/19 07:14:47;;;;;;;26.40;16.10;;;12.40;99.90;;;;;;5076709;28;20491;-64
2024/03/19 07:17:13;;;;;;;23.10;16.20;;;12.50;99.90;;;;;;5095390;28;20421;-63
2024/03/19 07:19:39;;;;;;;18.77;15.53;;;12.60;99.90;;;;;;5089655;28;20248;-64
2024/03/19 07:22:05;;;;;;;23.10;15.40;;;12.60;99.90;;;;;;5080662;28;20947;-63
2024/03/19 07:24:31;;;;;;;23.80;15.20;;;12.60;99.90;;;;;;5085308;28;20221;-64
2024/03/19 07:26:57;;;;;;;21.27;14.90;;;12.70;99.90;;;;;;5084282;28;20734;-64
2024/03/19 07:29:23;;;;;;;22.07;14.00;;;12.80;99.90;;;;;;5077406;28;20470;-64
2024/03/19 07:31:50;;;;;;;20.53;14.60;;;12.80;99.90;;;;;;5078711;28;20419;-64
2024/03/19 07:34:16;;;;;;;17.50;13.30;;;12.90;99.90;;;;;;5085051;28;20454;-64
2024/03/19 07:36:42;;;;;;;19.53;12.97;;;12.90;99.90;;;;;;5093378;28;20779;-63
2024/03/19 07:39:11;;;;;;;17.90;13.53;;;13.00;99.90;;;;;;5076453;28;20402;-62
2024/03/19 07:41:40;;;;;;;17.03;14.33;;;13.00;99.90;;;;;;5083417;28;20178;-62
2024/03/19 07:44:07;;;;;;;24.60;13.60;;;13.00;99.90;;;;;;5075946;28;20855;-61
2024/03/19 07:46:33;;;;;;;18.50;13.80;;;13.10;99.90;;;;;;5079101;28;20475;-62
2024/03/19 07:49:00;;;;;;;19.40;12.70;;;13.20;99.90;;;;;;5080971;28;20406;-61
2024/03/19 07:51:27;;;;;;;18.33;13.60;;;13.20;99.90;;;;;;5087830;28;20189;-64
2024/03/19 07:53:53;;;;;;;16.60;13.47;;;13.30;99.90;;;;;;5092905;28;20457;-63
2024/03/19 07:56:18;;;;;;;18.17;12.87;;;13.30;99.90;;;;;;5092896;28;21209;-63
2024/03/19 07:58:44;;;;;;;17.97;12.87;;;13.40;99.90;;;;;;5082969;28;20185;-64
2024/03/19 08:01:10;;;;;;;15.73;12.53;;;13.40;99.90;;;;;;5079831;28;20410;-64
2024/03/19 08:03:36;;;;;;;15.80;13.00;;;13.50;99.90;;;;;;5092740;28;20194;-64
2024/03/19 08:06:02;;;;;;;17.70;11.93;;;13.50;99.90;;;;;;5087650;28;20162;-61
2024/03/19 08:08:28;;;;;;;13.90;12.07;;;13.60;99.90;;;;;;5073487;28;20514;-64
2024/03/19 08:10:55;;;;;;;14.83;10.50;;;13.70;99.90;;;;;;5073935;28;20436;-63
2024/03/19 08:13:21;;;;;;;13.90;11.40;;;13.70;99.90;;;;;;5087532;28;20493;-63
2024/03/19 08:15:47;;;;;;;15.27;12.20;;;13.80;99.90;;;;;;5082853;28;20408;-63
2024/03/19 08:18:13;;;;;;;14.63;12.10;;;13.80;99.90;;;;;;5072947;28;20171;-63
2024/03/19 08:20:39;;;;;;;15.93;12.03;;;13.90;99.90;;;;;;5091268;28;20912;-63
2024/03/19 08:23:05;;;;;;;17.10;12.40;;;13.90;99.90;;;;;;5073487;28;20430;-62
2024/03/19 08:25:33;;;;;;;14.23;11.50;;;13.90;99.90;;;;;;5074043;28;20461;-66
2024/03/19 08:27:58;;;;;;;18.70;12.47;;;14.00;99.90;;;;;;5074333;28;20402;-65
2024/03/19 08:30:24;;;;;;;18.60;12.73;;;14.20;99.90;;;;;;5085358;28;20422;-65
2024/03/19 08:32:53;;;;;;;14.23;12.73;;;14.50;99.90;;;;;;5076163;28;20518;-64
2024/03/19 08:35:19;;;;;;;19.57;14.00;;;14.90;99.90;;;;;;5073397;28;20187;-65
2024/03/19 08:37:46;;;;;;;17.50;12.53;;;15.20;99.90;;;;;;5074632;28;20768;-65
2024/03/19 08:40:13;;;;;;;17.50;12.40;;;15.40;99.90;;;;;;5074912;28;20431;-64
2024/03/19 08:42:39;;;;;;;19.27;12.57;;;15.70;99.90;;;;;;5074179;28;20443;-65
2024/03/19 08:45:05;;;;;;;14.70;12.40;;;15.90;99.90;;;;;;5079695;28;20423;-64
2024/03/19 08:47:31;;;;;;;15.63;12.30;;;16.10;99.90;;;;;;5071371;28;20410;-64
2024/03/19 08:49:57;;;;;;;14.97;13.43;;;16.20;99.90;;;;;;5085843;28;20417;-65
2024/03/19 08:52:23;;;;;;;15.77;11.93;;;16.40;99.90;;;;;;5090927;28;20419;-65
2024/03/19 08:54:49;;;;;;;18.70;12.97;;;16.50;99.90;;;;;;5088916;28;20449;-64
2024/03/19 08:57:15;;;;;;;14.70;12.40;;;16.60;99.90;;;;;;5090915;28;20223;-64
2024/03/19 08:59:41;;;;;;;18.83;12.67;;;16.70;99.90;;;;;;5090364;28;20302;-65
2024/03/19 09:02:07;;;;;;;15.93;12.93;;;16.80;99.90;;;;;;5090896;28;20481;-64
2024/03/19 09:04:37;;;;;;;16.97;13.00;;;16.90;99.90;;;;;;5088557;28;20246;-65
2024/03/19 09:07:03;;;;;;;14.27;12.03;;;17.00;99.90;;;;;;5072215;28;20416;-65
2024/03/19 09:09:29;;;;;;;13.90;12.40;;;17.20;99.90;;;;;;5073231;28;20414;-66
2024/03/19 09:11:55;;;;;;;17.83;13.13;;;17.10;99.90;;;;;;5090471;28;20422;-63
2024/03/19 09:14:21;;;;;;;15.87;12.83;;;17.00;99.90;;;;;;5076058;28;20562;-63
2024/03/19 09:16:47;;;;;;;15.90;12.20;;;16.90;99.90;;;;;;5093441;28;20176;-65
2024/03/19 09:19:14;;;;;;;17.57;12.40;;;16.70;99.90;;;;;;5081768;28;20411;-65
2024/03/19 09:21:39;;;;;;;14.70;12.33;;;16.60;99.90;;;;;;5071819;28;20204;-63
2024/03/19 09:24:06;;;;;;;15.67;12.30;;;16.50;99.90;;;;;;5069873;28;20492;-63
2024/03/19 09:26:32;;;;;;;23.30;13.30;;;16.40;99.90;;;;;;5071826;28;20173;-63
2024/03/19 09:28:58;;;;;;;19.00;13.33;;;16.30;99.90;;;;;;5082902;28;20510;-63
2024/03/19 09:31:24;;;;;;;18.93;13.93;;;16.30;99.90;;;;;;5090421;28;21030;-63
2024/03/19 09:33:50;;;;;;;17.33;12.70;;;16.20;99.90;;;;;;5091685;28;20207;-63
2024/03/19 09:36:18;;;;;;;19.30;12.80;;;16.30;99.90;;;;;;5091321;28;20183;-63
2024/03/19 09:38:48;;;;;;;15.80;12.20;;;16.30;99.90;;;;;;5091331;28;20176;-63
2024/03/19 09:41:18;;;;;;;14.70;12.47;;;16.40;99.90;;;;;;5092607;28;20407;-63
2024/03/19 09:43:48;;;;;;;18.57;12.47;;;16.40;99.90;;;;;;5092712;28;20440;-63
2024/03/19 09:46:15;;;;;;;19.13;13.07;;;16.50;99.90;;;;;;5089765;28;20418;-64
2024/03/19 09:48:42;;;;;;;20.77;13.87;;;16.50;99.90;;;;;;5090216;28;20414;-63
2024/03/19 09:51:23;;;;;;;17.00;12.07;;;16.50;99.90;;;;;;5091314;28;20493;-63
2024/03/19 09:53:49;;;;;;;12.53;10.00;;;16.50;99.90;;;;;;5091104;28;20449;-63
2024/03/19 09:56:21;;;;;;;16.00;11.00;;;16.50;99.90;;;;;;5090349;28;20753;-63
2024/03/19 09:58:50;;;;;;;15.47;10.10;;;16.50;99.90;;;;;;5093248;28;20390;-63
2024/03/19 10:01:16;;;;;;;11.60;10.10;;;16.60;99.90;;;;;;5090364;28;20414;-63
2024/03/19 10:03:42;;;;;;;17.57;10.63;;;16.70;99.90;;;;;;5090781;28;20448;-63
2024/03/19 10:06:15;;;;;;;29.27;16.90;;;16.90;99.90;;;;;;5092077;28;20422;-63
2024/03/19 10:08:48;;;;;;;43.67;25.93;;;17.10;99.90;;;;;;5092190;28;20449;-63
2024/03/19 10:11:14;;;;;;;19.30;14.80;;;17.30;99.90;;;;;;5088908;28;20765;-63
2024/03/19 10:13:40;;;;;;;13.43;10.80;;;17.40;99.90;;;;;;5089829;28;20466;-63
2024/03/19 10:16:06;;;;;;;10.97;8.33;;;17.50;99.90;;;;;;5090740;28;20413;-63
2024/03/19 10:18:33;;;;;;;10.47;8.77;;;17.50;99.90;;;;;;5092154;28;20502;-63
2024/03/19 10:21:00;;;;;;;13.47;9.03;;;17.50;99.90;;;;;;5090474;28;20966;-63
2024/03/19 10:23:26;;;;;;;12.27;9.87;;;17.50;99.90;;;;;;5087868;28;20893;-63
2024/03/19 10:25:53;;;;;;;22.20;15.30;;;17.50;99.90;;;;;;5089512;28;20421;-63
2024/03/19 10:28:21;;;;;;;11.27;9.77;;;17.50;99.90;;;;;;5090900;28;20422;-63
2024/03/19 10:30:47;;;;;;;13.60;11.47;;;17.50;99.90;;;;;;5093863;28;20418;-63
2024/03/19 10:33:13;;;;;;;15.80;12.07;;;17.50;99.90;;;;;;5094161;28;20410;-63
2024/03/19 10:35:44;;;;;;;16.23;10.03;;;17.60;99.90;;;;;;5096953;28;20799;-63
2024/03/19 10:38:14;;;;;;;14.73;8.63;;;17.60;99.40;;;;;;5094427;28;20251;-63
2024/03/19 10:40:43;;;;;;;9.73;7.23;;;17.70;99.80;;;;;;5094736;28;20752;-63
2024/03/19 10:43:19;;;;;;;9.07;7.40;;;17.80;99.70;;;;;;5094090;28;20513;-63
2024/03/19 10:45:47;;;;;;;8.93;7.33;;;17.80;99.90;;;;;;5096707;28;20397;-63
2024/03/19 10:48:15;;;;;;;13.80;9.70;;;17.90;99.90;;;;;;5094123;28;20827;-62
2024/03/19 10:50:43;;;;;;;9.87;8.87;;;17.90;99.90;;;;;;5094213;28;20752;-62
2024/03/19 10:53:13;;;;;;;10.93;9.80;;;17.90;99.90;;;;;;5096436;28;20712;-62
2024/03/19 10:55:41;;;;;;;14.90;8.67;;;17.80;99.20;;;;;;5094658;28;20421;-62
2024/03/19 10:58:14;;;;;;;10.70;8.00;;;17.80;99.70;;;;;;5094510;28;20460;-62
2024/03/19 11:00:43;;;;;;;11.57;8.30;;;17.80;99.70;;;;;;5093223;28;20453;-62
2024/03/19 11:03:18;;;;;;;8.57;7.70;;;17.90;99.90;;;;;;5096361;28;20410;-62
2024/03/19 11:05:49;;;;;;;7.37;6.70;;;18.00;99.70;;;;;;5093353;28;20417;-62
2024/03/19 11:08:15;;;;;;;8.60;7.13;;;18.10;98.60;;;;;;5093727;28;20449;-63
2024/03/19 11:10:41;;;;;;;8.00;7.20;;;18.30;98.30;;;;;;5094221;28;20447;-62
2024/03/19 11:13:17;;;;;;;9.43;8.37;;;18.40;98.80;;;;;;5095655;28;20228;-62
2024/03/19 11:15:46;;;;;;;15.00;10.30;;;18.40;96.50;;;;;;5093432;28;20982;-62
2024/03/19 11:18:12;;;;;;;8.73;7.83;;;18.50;95.20;;;;;;5092595;28;20464;-62
2024/03/19 11:20:47;;;;;;;8.60;6.60;;;18.50;95.00;;;;;;5094016;28;20417;-62
2024/03/19 11:23:15;;;;;;;8.87;5.77;;;18.50;94.70;;;;;;5095306;28;20251;-62
2024/03/19 11:25:43;;;;;;;7.57;6.53;;;18.50;95.40;;;;;;5093884;28;20425;-62
2024/03/19 11:28:30;;;;;;;11.57;7.77;;;18.40;95.00;;;;;;5077707;28;20767;-62
2024/03/19 11:31:02;;;;;;;8.87;6.20;;;18.30;95.40;;;;;;5055630;28;20856;-62
2024/03/19 11:33:28;;;;;;;34.10;22.10;;;18.30;95.20;;;;;;5071962;28;20457;-63
2024/03/19 11:35:54;;;;;;;15.53;11.10;;;18.00;95.00;;;;;;5093744;28;20399;-62
2024/03/19 11:38:20;;;;;;;12.40;8.70;;;18.00;96.60;;;;;;5094977;28;20411;-62
2024/03/19 11:40:46;;;;;;;8.47;6.90;;;18.10;96.60;;;;;;5093093;28;20418;-62
2024/03/19 11:43:16;;;;;;;15.37;12.67;;;18.10;96.00;;;;;;5092719;28;20510;-62
2024/03/19 11:45:45;;;;;;;7.40;6.50;;;18.00;96.30;;;;;;5059948;28;20462;-63
2024/03/19 11:48:19;;;;;;;8.87;5.47;;;18.10;95.60;;;;;;5095307;28;20399;-62
2024/03/19 11:50:57;;;;;;;35.83;23.80;;;18.10;95.10;;;;;;5089827;28;20418;-62
2024/03/19 11:53:27;;;;;;;13.30;10.07;;;17.90;93.20;;;;;;5091998;28;20481;-68
2024/03/19 11:55:56;;;;;;;5.23;4.80;;;17.90;94.10;;;;;;5094777;28;20409;-64
2024/03/19 11:58:24;;;;;;;4.53;4.13;;;17.90;94.50;;;;;;5091965;28;20881;-63
2024/03/19 12:00:50;;;;;;;4.07;3.77;;;17.90;93.90;;;;;;5093112;28;20459;-62
2024/03/19 12:03:19;;;;;;;6.13;4.77;;;18.00;94.80;;;;;;5094061;28;20390;-63
2024/03/19 12:05:48;;;;;;;4.40;4.00;;;18.10;94.40;;;;;;5082721;28;20443;-62
2024/03/19 12:08:20;;;;;;;6.37;5.00;;;18.20;94.20;;;;;;5070404;28;20733;-63
2024/03/19 12:10:47;;;;;;;20.77;15.47;;;18.40;93.20;;;;;;5075000;28;20442;-63
2024/03/19 12:13:14;;;;;;;14.57;11.00;;;18.50;92.30;;;;;;5072580;28;20471;-63
2024/03/19 12:15:40;;;;;;;13.37;9.03;;;18.60;91.20;;;;;;5072437;28;20427;-63
2024/03/19 12:18:08;;;;;;;9.03;6.40;;;18.70;90.80;;;;;;5074147;28;20423;-63
2024/03/19 12:20:38;;;;;;;6.97;4.97;;;18.70;90.10;;;;;;5073303;28;20408;-63
2024/03/19 12:23:04;;;;;;;6.77;4.90;;;18.70;90.70;;;;;;5074903;28;20411;-62
2024/03/19 12:25:32;;;;;;;5.00;4.63;;;18.80;90.60;;;;;;5077154;28;20425;-62
2024/03/19 12:27:58;;;;;;;12.17;8.37;;;18.70;90.10;;;;;;5094388;28;20493;-63
2024/03/19 12:30:25;;;;;;;5.37;4.10;;;18.60;89.00;;;;;;5091709;28;20414;-62